createdAt,value
2018-11-20T05:00:35.247Z,20.73
2018-11-20T05:03:42.508Z,20.33
2018-11-20T05:06:45.752Z,20.00
2018-11-20T05:09:48.372Z,20.33
2018-11-20T05:12:35.370Z,21.47
2018-11-20T05:15:38.539Z,24.47
2018-11-20T05:18:35.638Z,22.70
2018-11-20T05:21:26.033Z,21.33
2018-11-20T05:24:14.619Z,22.67
2018-11-20T05:27:02.789Z,22.53
2018-11-20T05:29:45.955Z,23.43
2018-11-20T05:32:37.319Z,22.93
2018-11-20T05:35:24.463Z,22.03
2018-11-20T05:38:06.483Z,21.30
2018-11-20T05:40:54.287Z,22.47
2018-11-20T05:43:42.877Z,20.60
2018-11-20T05:46:34.520Z,22.37
2018-11-20T05:49:37.643Z,21.73
2018-11-20T05:52:31.921Z,22.13
2018-11-20T05:55:31.940Z,21.90
2018-11-20T05:58:10.816Z,21.67
2018-11-20T06:01:02.016Z,21.07
2018-11-20T06:03:48.918Z,21.70
2018-11-20T06:06:35.845Z,20.80
2018-11-20T06:09:21.546Z,20.50
2018-11-20T06:12:19.698Z,22.03
2018-11-20T06:15:07.122Z,21.83
2018-11-20T06:17:54.228Z,19.13
2018-11-20T06:20:32.246Z,20.50
2018-11-20T06:23:26.700Z,21.30
2018-11-20T06:26:13.485Z,20.50
2018-11-20T06:28:55.556Z,19.53
2018-11-20T06:31:51.796Z,19.93
2018-11-20T06:34:36.857Z,19.90
2018-11-20T06:37:34.400Z,22.67
2018-11-20T06:40:21.472Z,18.17
2018-11-20T06:43:13.791Z,20.73
2018-11-20T06:46:16.783Z,18.03
2018-11-20T06:49:07.980Z,19.03
2018-11-20T06:51:51.352Z,17.53
2018-11-20T06:54:38.130Z,18.40
2018-11-20T06:57:22.845Z,20.87
2018-11-20T07:00:13.679Z,19.57
2018-11-20T07:02:55.729Z,18.97
2018-11-20T07:05:47.138Z,18.83
2018-11-20T07:08:35.608Z,17.97
2018-11-20T07:11:15.559Z,18.60
2018-11-20T07:14:17.204Z,17.30
2018-11-20T07:17:14.963Z,17.67
2018-11-20T07:20:08.840Z,17.27
2018-11-20T07:22:57.430Z,19.53
2018-11-20T07:25:44.211Z,19.13
2018-11-20T07:28:38.614Z,17.47
2018-11-20T07:31:25.700Z,18.23
2018-11-20T07:34:12.488Z,18.57
2018-11-20T07:36:52.944Z,18.20
2018-11-20T07:39:36.568Z,19.07
2018-11-20T07:42:30.341Z,18.33
2018-11-20T07:45:17.245Z,18.97
2018-11-20T07:48:11.502Z,19.43
2018-11-20T07:50:58.804Z,19.50
2018-11-20T07:53:45.446Z,18.67
2018-11-20T07:56:25.144Z,18.83
2018-11-20T07:59:11.283Z,19.53
2018-11-20T08:01:58.132Z,21.07
2018-11-20T08:04:55.485Z,21.10
2018-11-20T08:07:42.345Z,19.67
2018-11-20T08:10:36.403Z,19.90
2018-11-20T08:13:24.625Z,20.07
2018-11-20T08:16:07.761Z,19.73
2018-11-20T08:18:59.377Z,20.30
2018-11-20T08:21:46.104Z,19.63
2018-11-20T08:24:42.749Z,19.90
2018-11-20T08:27:19.975Z,20.57
2018-11-20T08:30:07.184Z,21.40
2018-11-20T08:33:07.321Z,20.33
2018-11-20T08:35:50.652Z,20.03
2018-11-20T08:38:32.937Z,20.07
2018-11-20T08:41:21.227Z,20.37
2018-11-20T08:44:21.541Z,20.90
2018-11-20T08:47:09.721Z,20.17
2018-11-20T08:50:03.634Z,22.00
2018-11-20T08:53:03.942Z,20.90
2018-11-20T08:55:54.746Z,20.10
2018-11-20T08:58:34.524Z,20.83
2018-11-20T09:01:25.261Z,20.67
2018-11-20T09:04:20.886Z,20.93
2018-11-20T09:07:08.562Z,20.07
2018-11-20T09:09:59.397Z,20.70
2018-11-20T09:12:46.240Z,21.77
2018-11-20T09:15:33.947Z,20.70
2018-11-20T09:18:36.861Z,19.63
2018-11-20T09:21:24.352Z,19.67
2018-11-20T09:24:15.146Z,20.33
2018-11-20T09:27:02.330Z,20.33
2018-11-20T09:29:40.960Z,21.20
2018-11-20T09:32:36.054Z,21.50
2018-11-20T09:35:39.930Z,20.93
2018-11-20T09:38:20.052Z,17.57
2018-11-20T09:41:21.430Z,21.00
2018-11-20T09:44:08.445Z,21.03
2018-11-20T09:46:55.899Z,21.00
2018-11-20T09:49:36.000Z,20.57
2018-11-20T09:52:23.323Z,20.07
2018-11-20T09:55:10.581Z,21.13
2018-11-20T09:57:58.853Z,20.83
2018-11-20T10:00:46.046Z,19.80
2018-11-20T10:03:39.553Z,21.33
2018-11-20T10:06:20.765Z,22.60
2018-11-20T10:09:12.210Z,20.47
2018-11-20T10:11:59.266Z,21.47
2018-11-20T10:17:10.188Z,22.10
2018-11-20T10:19:58.337Z,23.10
2018-11-20T10:22:55.122Z,22.53
2018-11-20T10:25:51.001Z,22.07
2018-11-20T10:28:54.831Z,21.93
2018-11-20T10:31:55.595Z,22.03
2018-11-20T10:34:42.504Z,22.43
2018-11-20T10:37:33.374Z,20.33
2018-11-20T10:40:24.831Z,22.93
2018-11-20T10:43:19.007Z,22.37
2018-11-20T10:46:09.366Z,22.77
2018-11-20T10:49:12.455Z,22.63
2018-11-20T10:51:59.270Z,21.33
2018-11-20T10:54:53.566Z,23.40
2018-11-20T10:57:40.346Z,22.60
2018-11-20T11:00:27.301Z,21.10
2018-11-20T11:03:14.301Z,22.73
2018-11-20T11:06:01.510Z,21.23
2018-11-20T11:09:05.659Z,21.87
2018-11-20T11:12:01.550Z,21.87
2018-11-20T11:14:53.546Z,21.93
2018-11-20T11:17:54.126Z,21.97
2018-11-20T11:20:42.527Z,20.57
2018-11-20T11:23:29.830Z,20.40
2018-11-20T11:26:36.134Z,21.07
2018-11-20T11:29:31.329Z,22.03
2018-11-20T11:32:18.358Z,22.43
2018-11-20T11:35:06.557Z,21.03
2018-11-20T11:38:04.203Z,21.93
2018-11-20T11:40:45.097Z,20.83
2018-11-20T11:43:30.178Z,21.50
2018-11-20T11:46:12.454Z,20.80
2018-11-20T11:49:09.984Z,21.07
2018-11-20T11:51:52.785Z,22.00
2018-11-20T11:54:53.151Z,20.10
2018-11-20T11:57:59.548Z,20.83
2018-11-20T12:00:43.152Z,19.73
2018-11-20T12:03:40.442Z,19.40
2018-11-20T12:06:33.173Z,18.63
2018-11-20T12:09:20.214Z,19.40
2018-11-20T12:12:07.431Z,20.03
2018-11-20T12:14:54.203Z,19.80
2018-11-20T12:17:37.704Z,17.83
2018-11-20T12:20:25.065Z,19.67
2018-11-20T12:23:06.384Z,20.13
2018-11-20T12:26:12.883Z,20.33
2018-11-20T12:28:55.857Z,19.13
2018-11-20T12:31:41.425Z,18.03
2018-11-20T12:34:28.548Z,18.77
2018-11-20T12:37:22.514Z,18.63
2018-11-20T12:40:08.944Z,20.03
2018-11-20T12:43:01.977Z,19.17
2018-11-20T12:46:13.121Z,19.63
2018-11-20T12:49:08.119Z,19.93
2018-11-20T12:52:05.937Z,19.00
2018-11-20T12:55:09.024Z,18.83
2018-11-20T12:58:00.062Z,20.00
2018-11-20T13:01:03.129Z,20.33
2018-11-20T13:03:45.675Z,20.07
2018-11-20T13:06:31.985Z,18.70
2018-11-20T13:09:26.604Z,20.53
2018-11-20T13:12:13.709Z,19.40
2018-11-20T13:15:08.818Z,20.63
2018-11-20T13:18:12.979Z,20.77
2018-11-20T13:21:10.959Z,20.33
2018-11-20T13:23:49.628Z,20.77
2018-11-20T13:26:31.477Z,20.70
2018-11-20T13:29:17.495Z,21.57
2018-11-20T13:32:08.380Z,22.07
2018-11-20T13:35:08.571Z,22.03
2018-11-20T13:37:51.922Z,19.73
2018-11-20T13:41:09.790Z,20.67
2018-11-20T13:43:56.585Z,20.70
2018-11-20T13:47:04.088Z,20.40
2018-11-20T13:49:49.714Z,21.17
2018-11-20T13:52:37.910Z,21.27
2018-11-20T13:55:38.361Z,20.37
2018-11-20T13:58:25.275Z,23.10
2018-11-20T14:01:19.817Z,22.07
2018-11-20T14:04:25.933Z,23.13
2018-11-20T14:07:23.143Z,22.47
2018-11-20T14:10:08.583Z,21.97
2018-11-20T14:13:14.828Z,22.50
2018-11-20T14:15:59.911Z,22.40
2018-11-20T14:18:46.967Z,22.20
2018-11-20T14:21:41.771Z,22.67
2018-11-20T14:24:30.013Z,23.23
2018-11-20T14:27:18.309Z,21.20
2018-11-20T14:30:05.148Z,23.30
2018-11-20T14:32:43.101Z,22.37
2018-11-20T14:35:46.782Z,22.90
2018-11-20T14:38:41.051Z,21.40
2018-11-20T14:41:28.392Z,23.07
2018-11-20T14:44:15.741Z,23.10
2018-11-20T14:47:02.527Z,22.80
2018-11-20T14:49:49.722Z,24.17
2018-11-20T14:52:46.805Z,22.47
2018-11-20T14:55:33.825Z,23.17
2018-11-20T14:58:15.348Z,25.10
2018-11-20T15:01:04.702Z,25.50
2018-11-20T15:03:52.569Z,23.47
2018-11-20T15:06:40.042Z,27.00
2018-11-20T15:09:28.061Z,26.67
2018-11-20T15:12:35.183Z,24.90
2018-11-20T15:15:27.060Z,24.07
2018-11-20T15:18:24.977Z,24.20
2018-11-20T15:21:11.000Z,23.63
2018-11-20T15:23:47.474Z,24.50
2018-11-20T15:26:31.325Z,25.97
2018-11-20T15:29:25.288Z,30.60
2018-11-20T15:32:12.576Z,25.27
2018-11-20T15:35:06.836Z,23.33
2018-11-20T15:37:59.005Z,24.17
2018-11-20T15:40:47.223Z,23.80
2018-11-20T15:43:24.006Z,25.57
2018-11-20T15:46:23.665Z,22.73
2018-11-20T15:49:09.032Z,25.03
2018-11-20T15:51:55.975Z,23.10
2018-11-20T15:54:34.259Z,26.53
2018-11-20T15:57:25.373Z,25.27
2018-11-20T16:00:32.090Z,25.03
2018-11-20T16:03:35.616Z,27.47
2018-11-20T16:06:15.565Z,27.93
2018-11-20T16:09:18.965Z,24.33
2018-11-20T16:12:16.702Z,24.90
2018-11-20T16:15:14.548Z,25.73
2018-11-20T16:18:01.567Z,29.43
2018-11-20T16:20:45.289Z,23.83
2018-11-20T16:23:33.923Z,24.03
2018-11-20T16:26:12.603Z,23.77
2018-11-20T16:28:54.219Z,25.67
2018-11-20T16:31:34.250Z,24.67
2018-11-20T16:34:14.665Z,24.50
2018-11-20T16:36:55.579Z,23.97
2018-11-20T16:39:53.365Z,24.97
2018-11-20T16:42:41.486Z,24.00
2018-11-20T16:45:41.367Z,25.07
2018-11-20T16:48:36.355Z,22.93
2018-11-20T16:51:23.271Z,24.77
2018-11-20T16:54:16.812Z,25.47
2018-11-20T16:56:55.061Z,25.27
2018-11-20T16:59:42.097Z,26.13
2018-11-20T17:02:29.242Z,24.53
2018-11-20T17:05:26.658Z,25.00
2018-11-20T17:08:33.143Z,24.10
2018-11-20T17:11:19.923Z,23.23
2018-11-20T17:17:51.956Z,22.93
2018-11-20T17:20:59.177Z,24.50
2018-11-20T17:24:06.409Z,25.07
2018-11-20T17:27:13.631Z,25.20
2018-11-20T17:30:20.929Z,26.23
2018-11-20T17:33:28.198Z,24.20
2018-11-20T17:36:35.474Z,24.87
2018-11-20T17:39:45.340Z,25.37
2018-11-20T17:42:52.577Z,25.80
2018-11-20T17:45:59.892Z,26.50
2018-11-20T17:49:07.177Z,25.60
2018-11-20T17:52:07.090Z,25.33
2018-11-20T17:55:14.388Z,24.10
2018-11-20T17:58:21.607Z,24.73
2018-11-20T18:01:28.947Z,23.50
2018-11-20T18:04:36.283Z,25.53
2018-11-20T18:07:43.635Z,24.47
2018-11-20T18:10:50.839Z,25.63
2018-11-20T18:13:58.127Z,24.43
2018-11-20T18:17:05.414Z,25.63
2018-11-20T18:20:12.644Z,25.67
2018-11-20T18:23:19.864Z,26.10
2018-11-20T18:26:27.164Z,26.23
2018-11-20T18:29:34.375Z,26.93
2018-11-20T18:32:41.615Z,25.97
2018-11-20T18:39:12.796Z,23.53
2018-11-20T18:42:12.678Z,27.50
2018-11-20T18:45:19.973Z,26.80
2018-11-20T18:48:27.189Z,26.20
2018-11-20T18:51:34.671Z,26.73
2018-11-20T18:54:41.949Z,27.77
2018-11-20T18:57:49.242Z,25.50
2018-11-20T19:00:56.535Z,27.97
2018-11-20T19:04:03.834Z,27.07
2018-11-20T19:07:11.091Z,26.37
2018-11-20T19:10:18.571Z,25.73
2018-11-20T19:13:25.835Z,24.43
2018-11-20T19:16:33.095Z,26.00
2018-11-20T19:19:40.385Z,26.97
2018-11-20T19:22:47.723Z,25.20
2018-11-20T19:25:55.011Z,26.10
2018-11-20T19:29:02.748Z,26.50
2018-11-20T19:32:03.326Z,27.63
2018-11-20T19:35:10.576Z,24.97
2018-11-20T19:38:17.801Z,28.47
2018-11-20T19:41:25.049Z,28.70
2018-11-20T19:44:28.374Z,27.13
2018-11-20T19:47:35.916Z,28.07
2018-11-20T19:50:43.364Z,27.57
2018-11-20T19:53:50.990Z,27.53
2018-11-20T19:56:58.211Z,26.50
2018-11-20T20:00:05.451Z,27.03
2018-11-20T20:03:12.668Z,26.97
2018-11-20T20:06:19.909Z,26.17
2018-11-20T20:09:37.455Z,25.90
2018-11-20T20:12:45.046Z,27.33
2018-11-20T20:15:52.325Z,24.53
2018-11-20T20:18:59.627Z,25.63
2018-11-20T20:22:06.909Z,25.77
2018-11-20T20:25:14.149Z,26.97
2018-11-20T20:28:17.642Z,25.17
2018-11-20T20:31:25.851Z,25.67
2018-11-20T20:34:33.125Z,26.83
2018-11-20T20:37:32.598Z,24.60
2018-11-20T20:40:32.712Z,22.70
2018-11-20T20:43:32.624Z,25.23
2018-11-20T20:46:32.007Z,24.23
2018-11-20T20:49:19.795Z,23.17
2018-11-20T20:52:20.018Z,23.80
2018-11-20T20:55:20.054Z,24.43
2018-11-20T20:58:08.573Z,23.50
2018-11-20T21:01:08.104Z,23.70
2018-11-20T21:04:08.258Z,24.27
2018-11-20T21:07:07.996Z,23.37
2018-11-20T21:10:08.242Z,23.27
2018-11-20T21:12:48.721Z,22.90
2018-11-20T21:15:48.862Z,24.33
2018-11-20T21:18:48.573Z,23.43
2018-11-20T21:21:48.502Z,23.73
2018-11-20T21:24:48.557Z,25.50
2018-11-20T21:27:48.585Z,23.17
2018-11-20T21:30:48.407Z,24.30
2018-11-20T21:33:47.946Z,25.37
2018-11-20T21:36:47.942Z,24.97
2018-11-20T21:39:47.618Z,26.53
2018-11-20T21:42:47.540Z,25.50
2018-11-20T21:45:48.637Z,25.03
2018-11-20T21:48:48.534Z,24.97
2018-11-20T21:51:48.433Z,25.83
2018-11-20T21:54:54.470Z,24.53
2018-11-20T21:57:56.696Z,24.13
